sensor_id;sensor_type;location;lat;lon;timestamp;P1;durP1;ratioP1;P2;durP2;ratioP2
25079;SDS011;13071;48.868;9.996;2024-03-23T00:54:05;7.68;;;4.38;;
25079;SDS011;13071;48.868;9.996;2024-03-23T00:56:31;8.95;;;4.47;;
25079;SDS011;13071;48.868;9.996;2024-03-23T00:58:57;10.05;;;4.53;;
25079;SDS011;13071;48.868;9.996;2024-03-23T01:01:23;7.78;;;4.40;;
25079;SDS011;13071;48.868;9.996;2024-03-23T01:03:49;8.93;;;4.82;;
25079;SDS011;13071;48.868;9.996;2024-03-23T01:06:15;7.55;;;4.47;;
25079;SDS011;13071;48.868;9.996;2024-03-23T01:08:41;8.55;;;4.32;;
25079;SDS011;13071;48.868;9.996;2024-03-23T01:11:08;6.25;;;3.75;;
25079;SDS011;13071;48.868;9.996;2024-03-23T01:13:34;8.07;;;4.82;;
25079;SDS011;13071;48.868;9.996;2024-03-23T01:16:00;13.90;;;4.50;;
25079;SDS011;13071;48.868;9.996;2024-03-23T01:18:26;6.32;;;4.10;;
25079;SDS011;13071;48.868;9.996;2024-03-23T01:20:53;11.13;;;4.57;;
25079;SDS011;13071;48.868;9.996;2024-03-23T01:23:18;7.53;;;4.00;;
25079;SDS011;13071;48.868;9.996;2024-03-23T01:25:51;7.95;;;4.38;;
25079;SDS011;13071;48.868;9.996;2024-03-23T01:28:17;8.82;;;3.97;;
25079;SDS011;13071;48.868;9.996;2024-03-23T01:30:44;9.07;;;3.88;;
25079;SDS011;13071;48.868;9.996;2024-03-23T01:33:09;7.75;;;4.47;;
25079;SDS011;13071;48.868;9.996;2024-03-23T01:35:36;9.50;;;4.20;;
25079;SDS011;13071;48.868;9.996;2024-03-23T01:38:01;7.97;;;4.03;;
25079;SDS011;13071;48.868;9.996;2024-03-23T01:40:27;8.13;;;4.10;;
25079;SDS011;13071;48.868;9.996;2024-03-23T01:42:56;13.70;;;4.55;;
25079;SDS011;13071;48.868;9.996;2024-03-23T01:45:24;8.90;;;4.05;;
25079;SDS011;13071;48.868;9.996;2024-03-23T01:47:50;7.82;;;3.90;;
25079;SDS011;13071;48.868;9.996;2024-03-23T01:50:16;6.18;;;3.78;;
25079;SDS011;13071;48.868;9.996;2024-03-23T01:52:42;5.55;;;3.65;;
25079;SDS011;13071;48.868;9.996;2024-03-23T01:55:09;7.97;;;3.60;;
25079;SDS011;13071;48.868;9.996;2024-03-23T01:57:34;9.85;;;4.25;;
25079;SDS011;13071;48.868;9.996;2024-03-23T02:00:01;10.63;;;3.58;;
25079;SDS011;13071;48.868;9.996;2024-03-23T02:02:28;5.88;;;3.80;;
25079;SDS011;13071;48.868;9.996;2024-03-23T02:04:54;5.60;;;3.75;;
25079;SDS011;13071;48.868;9.996;2024-03-23T02:07:19;6.82;;;3.75;;
25079;SDS011;13071;48.868;9.996;2024-03-23T02:09:46;12.13;;;3.83;;
25079;SDS011;13071;48.868;9.996;2024-03-23T02:12:11;4.32;;;3.03;;
25079;SDS011;13071;48.868;9.996;2024-03-23T02:14:37;10.38;;;3.38;;
25079;SDS011;13071;48.868;9.996;2024-03-23T02:17:03;6.68;;;3.40;;
25079;SDS011;13071;48.868;9.996;2024-03-23T02:19:31;4.25;;;3.25;;
25079;SDS011;13071;48.868;9.996;2024-03-23T02:21:56;4.82;;;3.15;;
25079;SDS011;13071;48.868;9.996;2024-03-23T02:24:24;3.38;;;2.95;;
25079;SDS011;13071;48.868;9.996;2024-03-23T02:26:49;4.40;;;3.00;;
25079;SDS011;13071;48.868;9.996;2024-03-23T02:29:15;3.72;;;2.97;;
25079;SDS011;13071;48.868;9.996;2024-03-23T02:31:41;9.40;;;3.60;;
25079;SDS011;13071;48.868;9.996;2024-03-23T02:34:07;5.40;;;3.05;;
25079;SDS011;13071;48.868;9.996;2024-03-23T02:36:33;5.13;;;3.10;;
25079;SDS011;13071;48.868;9.996;2024-03-23T02:38:59;6.55;;;3.38;;
25079;SDS011;13071;48.868;9.996;2024-03-23T02:41:26;6.88;;;3.58;;
25079;SDS011;13071;48.868;9.996;2024-03-23T02:43:52;5.50;;;3.00;;
25079;SDS011;13071;48.868;9.996;2024-03-23T02:46:18;6.28;;;3.03;;
25079;SDS011;13071;48.868;9.996;2024-03-23T02:48:44;4.38;;;2.80;;
25079;SDS011;13071;48.868;9.996;2024-03-23T02:51:09;5.85;;;3.38;;
25079;SDS011;13071;48.868;9.996;2024-03-23T02:53:36;4.95;;;3.22;;
25079;SDS011;13071;48.868;9.996;2024-03-23T02:56:01;3.63;;;2.97;;
25079;SDS011;13071;48.868;9.996;2024-03-23T02:58:29;4.60;;;3.28;;
25079;SDS011;13071;48.868;9.996;2024-03-23T03:00:55;6.18;;;2.85;;
25079;SDS011;13071;48.868;9.996;2024-03-23T03:03:21;4.55;;;3.10;;
25079;SDS011;13071;48.868;9.996;2024-03-23T03:05:46;7.78;;;3.08;;
25079;SDS011;13071;48.868;9.996;2024-03-23T03:08:13;4.68;;;3.33;;
25079;SDS011;13071;48.868;9.996;2024-03-23T03:10:38;5.20;;;2.97;;
25079;SDS011;13071;48.868;9.996;2024-03-23T03:13:04;5.22;;;2.88;;
25079;SDS011;13071;48.868;9.996;2024-03-23T03:15:31;4.25;;;3.20;;
25079;SDS011;13071;48.868;9.996;2024-03-23T03:17:57;4.70;;;3.03;;
25079;SDS011;13071;48.868;9.996;2024-03-23T03:20:23;5.97;;;3.53;;
25079;SDS011;13071;48.868;9.996;2024-03-23T03:22:49;7.05;;;3.72;;
25079;SDS011;13071;48.868;9.996;2024-03-23T03:25:15;7.93;;;3.40;;
25079;SDS011;13071;48.868;9.996;2024-03-23T03:27:41;7.53;;;3.75;;
25079;SDS011;13071;48.868;9.996;2024-03-23T03:30:07;6.28;;;3.33;;
25079;SDS011;13071;48.868;9.996;2024-03-23T03:32:35;7.95;;;3.80;;
25079;SDS011;13071;48.868;9.996;2024-03-23T03:35:00;6.40;;;4.15;;
25079;SDS011;13071;48.868;9.996;2024-03-23T03:37:27;9.10;;;4.03;;
25079;SDS011;13071;48.868;9.996;2024-03-23T03:39:52;6.80;;;4.30;;
25079;SDS011;13071;48.868;9.996;2024-03-23T03:42:19;7.68;;;4.30;;
25079;SDS011;13071;48.868;9.996;2024-03-23T03:44:44;8.23;;;4.45;;
25079;SDS011;13071;48.868;9.996;2024-03-23T03:47:10;7.03;;;3.95;;
25079;SDS011;13071;48.868;9.996;2024-03-23T03:49:37;6.63;;;4.25;;
25079;SDS011;13071;48.868;9.996;2024-03-23T03:52:04;5.90;;;3.90;;
25079;SDS011;13071;48.868;9.996;2024-03-23T03:54:29;9.10;;;4.45;;
25079;SDS011;13071;48.868;9.996;2024-03-23T03:56:56;8.68;;;4.10;;
25079;SDS011;13071;48.868;9.996;2024-03-23T03:59:21;9.88;;;3.63;;
25079;SDS011;13071;48.868;9.996;2024-03-23T04:01:48;7.85;;;4.00;;
25079;SDS011;13071;48.868;9.996;2024-03-23T04:04:13;5.32;;;3.70;;
25079;SDS011;13071;48.868;9.996;2024-03-23T04:06:42;6.25;;;3.63;;
25079;SDS011;13071;48.868;9.996;2024-03-23T04:09:08;9.13;;;3.95;;
25079;SDS011;13071;48.868;9.996;2024-03-23T04:11:35;7.90;;;4.05;;
25079;SDS011;13071;48.868;9.996;2024-03-23T04:14:00;5.30;;;3.60;;
25079;SDS011;13071;48.868;9.996;2024-03-23T04:16:27;7.32;;;3.92;;
25079;SDS011;13071;48.868;9.996;2024-03-23T04:18:52;5.93;;;3.83;;
25079;SDS011;13071;48.868;9.996;2024-03-23T04:21:19;7.05;;;4.43;;
25079;SDS011;13071;48.868;9.996;2024-03-23T04:23:46;6.10;;;3.85;;
25079;SDS011;13071;48.868;9.996;2024-03-23T04:26:12;8.52;;;3.95;;
25079;SDS011;13071;48.868;9.996;2024-03-23T04:28:37;7.18;;;3.85;;
25079;SDS011;13071;48.868;9.996;2024-03-23T04:31:04;5.47;;;3.63;;
25079;SDS011;13071;48.868;9.996;2024-03-23T04:33:29;8.90;;;4.15;;
25079;SDS011;13071;48.868;9.996;2024-03-23T04:35:56;5.90;;;3.47;;
25079;SDS011;13071;48.868;9.996;2024-03-23T04:38:21;6.28;;;3.40;;
25079;SDS011;13071;48.868;9.996;2024-03-23T04:40:54;7.60;;;3.88;;
25079;SDS011;13071;48.868;9.996;2024-03-23T04:43:21;7.28;;;3.75;;
25079;SDS011;13071;48.868;9.996;2024-03-23T04:45:47;7.40;;;3.80;;
25079;SDS011;13071;48.868;9.996;2024-03-23T04:48:13;5.28;;;3.10;;
25079;SDS011;13071;48.868;9.996;2024-03-23T04:50:40;5.75;;;3.60;;
25079;SDS011;13071;48.868;9.996;2024-03-23T04:53:06;5.30;;;3.35;;
25079;SDS011;13071;48.868;9.996;2024-03-23T04:55:32;6.72;;;3.65;;
25079;SDS011;13071;48.868;9.996;2024-03-23T04:57:59;6.95;;;3.63;;
25079;SDS011;13071;48.868;9.996;2024-03-23T05:00:25;6.90;;;3.63;;
25079;SDS011;13071;48.868;9.996;2024-03-23T05:02:51;6.00;;;3.30;;
25079;SDS011;13071;48.868;9.996;2024-03-23T05:05:18;8.25;;;4.05;;
25079;SDS011;13071;48.868;9.996;2024-03-23T05:07:44;6.25;;;3.78;;
25079;SDS011;13071;48.868;9.996;2024-03-23T05:10:10;5.53;;;3.30;;
25079;SDS011;13071;48.868;9.996;2024-03-23T05:12:38;6.50;;;3.53;;
25079;SDS011;13071;48.868;9.996;2024-03-23T05:15:05;6.10;;;3.38;;
25079;SDS011;13071;48.868;9.996;2024-03-23T05:17:32;6.47;;;3.50;;
25079;SDS011;13071;48.868;9.996;2024-03-23T05:19:58;5.93;;;3.50;;
25079;SDS011;13071;48.868;9.996;2024-03-23T05:22:24;7.65;;;3.65;;
25079;SDS011;13071;48.868;9.996;2024-03-23T05:24:49;5.65;;;3.72;;
25079;SDS011;13071;48.868;9.996;2024-03-23T05:27:16;10.23;;;4.28;;
25079;SDS011;13071;48.868;9.996;2024-03-23T05:29:41;9.50;;;3.50;;
25079;SDS011;13071;48.868;9.996;2024-03-23T05:32:09;5.80;;;3.35;;
25079;SDS011;13071;48.868;9.996;2024-03-23T05:34:34;5.32;;;3.40;;
25079;SDS011;13071;48.868;9.996;2024-03-23T05:37:01;6.28;;;3.50;;
25079;SDS011;13071;48.868;9.996;2024-03-23T05:39:26;7.25;;;3.58;;
25079;SDS011;13071;48.868;9.996;2024-03-23T05:41:52;8.20;;;4.45;;
25079;SDS011;13071;48.868;9.996;2024-03-23T05:44:18;8.05;;;4.35;;
25079;SDS011;13071;48.868;9.996;2024-03-23T05:46:44;9.02;;;4.93;;
25079;SDS011;13071;48.868;9.996;2024-03-23T05:49:15;13.55;;;6.45;;
25079;SDS011;13071;48.868;9.996;2024-03-23T05:51:41;18.05;;;6.53;;
25079;SDS011;13071;48.868;9.996;2024-03-23T05:54:06;15.48;;;6.60;;
25079;SDS011;13071;48.868;9.996;2024-03-23T05:56:33;19.55;;;7.80;;
25079;SDS011;13071;48.868;9.996;2024-03-23T05:58:58;15.63;;;7.15;;
25079;SDS011;13071;48.868;9.996;2024-03-23T06:01:25;18.65;;;7.97;;
25079;SDS011;13071;48.868;9.996;2024-03-23T06:03:53;15.88;;;7.70;;
25079;SDS011;13071;48.868;9.996;2024-03-23T06:06:21;20.70;;;8.13;;
25079;SDS011;13071;48.868;9.996;2024-03-23T06:08:46;20.42;;;8.25;;
25079;SDS011;13071;48.868;9.996;2024-03-23T06:11:13;17.83;;;7.15;;
25079;SDS011;13071;48.868;9.996;2024-03-23T06:13:39;20.92;;;7.78;;
25079;SDS011;13071;48.868;9.996;2024-03-23T06:16:05;19.55;;;8.18;;
25079;SDS011;13071;48.868;9.996;2024-03-23T06:18:32;23.20;;;8.00;;
25079;SDS011;13071;48.868;9.996;2024-03-23T06:20:58;19.42;;;7.65;;
25079;SDS011;13071;48.868;9.996;2024-03-23T06:23:25;16.83;;;7.07;;
25079;SDS011;13071;48.868;9.996;2024-03-23T06:25:51;15.52;;;6.50;;
25079;SDS011;13071;48.868;9.996;2024-03-23T06:28:17;18.05;;;7.00;;
25079;SDS011;13071;48.868;9.996;2024-03-23T06:30:44;8.80;;;4.45;;
25079;SDS011;13071;48.868;9.996;2024-03-23T06:33:09;15.68;;;4.32;;
25079;SDS011;13071;48.868;9.996;2024-03-23T06:35:35;9.23;;;4.43;;
25079;SDS011;13071;48.868;9.996;2024-03-23T06:38:01;11.57;;;4.85;;
25079;SDS011;13071;48.868;9.996;2024-03-23T06:40:28;7.20;;;3.20;;
25079;SDS011;13071;48.868;9.996;2024-03-23T06:42:54;10.77;;;3.83;;
25079;SDS011;13071;48.868;9.996;2024-03-23T06:45:20;11.35;;;4.00;;
25079;SDS011;13071;48.868;9.996;2024-03-23T06:47:48;8.45;;;3.92;;
25079;SDS011;13071;48.868;9.996;2024-03-23T06:50:14;7.18;;;3.30;;
25079;SDS011;13071;48.868;9.996;2024-03-23T06:52:40;6.97;;;3.88;;
25079;SDS011;13071;48.868;9.996;2024-03-23T06:55:06;10.88;;;3.00;;
25079;SDS011;13071;48.868;9.996;2024-03-23T06:57:34;6.20;;;3.10;;
25079;SDS011;13071;48.868;9.996;2024-03-23T07:00:00;5.03;;;2.95;;
25079;SDS011;13071;48.868;9.996;2024-03-23T07:02:25;6.40;;;2.95;;
25079;SDS011;13071;48.868;9.996;2024-03-23T07:04:53;6.65;;;2.78;;
25079;SDS011;13071;48.868;9.996;2024-03-23T07:07:18;6.55;;;3.08;;
25079;SDS011;13071;48.868;9.996;2024-03-23T07:09:44;6.55;;;2.90;;
25079;SDS011;13071;48.868;9.996;2024-03-23T07:12:10;6.15;;;3.33;;
25079;SDS011;13071;48.868;9.996;2024-03-23T07:14:38;7.85;;;3.28;;
25079;SDS011;13071;48.868;9.996;2024-03-23T07:17:03;6.47;;;3.28;;
25079;SDS011;13071;48.868;9.996;2024-03-23T07:19:29;9.18;;;3.00;;
25079;SDS011;13071;48.868;9.996;2024-03-23T07:21:55;5.13;;;2.50;;
25079;SDS011;13071;48.868;9.996;2024-03-23T07:24:21;6.75;;;2.95;;
25079;SDS011;13071;48.868;9.996;2024-03-23T07:26:46;6.53;;;3.22;;
25079;SDS011;13071;48.868;9.996;2024-03-23T07:29:13;6.28;;;3.60;;
25079;SDS011;13071;48.868;9.996;2024-03-23T07:31:40;5.35;;;2.47;;
25079;SDS011;13071;48.868;9.996;2024-03-23T07:34:06;4.28;;;2.38;;
25079;SDS011;13071;48.868;9.996;2024-03-23T07:36:32;4.15;;;2.53;;
25079;SDS011;13071;48.868;9.996;2024-03-23T07:38:58;3.20;;;2.33;;
25079;SDS011;13071;48.868;9.996;2024-03-23T07:41:23;5.72;;;2.35;;
25079;SDS011;13071;48.868;9.996;2024-03-23T07:43:50;3.08;;;1.90;;
25079;SDS011;13071;48.868;9.996;2024-03-23T07:46:15;3.70;;;2.05;;
25079;SDS011;13071;48.868;9.996;2024-03-23T07:48:43;2.45;;;1.73;;
25079;SDS011;13071;48.868;9.996;2024-03-23T07:51:10;3.28;;;1.50;;
25079;SDS011;13071;48.868;9.996;2024-03-23T07:53:36;7.88;;;1.98;;
25079;SDS011;13071;48.868;9.996;2024-03-23T07:56:03;2.78;;;1.75;;
25079;SDS011;13071;48.868;9.996;2024-03-23T07:58:29;3.97;;;1.98;;
25079;SDS011;13071;48.868;9.996;2024-03-23T08:00:55;2.60;;;1.58;;
25079;SDS011;13071;48.868;9.996;2024-03-23T08:03:22;1.98;;;1.63;;
25079;SDS011;13071;48.868;9.996;2024-03-23T08:05:48;2.67;;;1.70;;
25079;SDS011;13071;48.868;9.996;2024-03-23T08:08:15;1.73;;;1.60;;
25079;SDS011;13071;48.868;9.996;2024-03-23T08:10:47;1.17;;;1.17;;
25079;SDS011;13071;48.868;9.996;2024-03-23T08:13:13;5.13;;;2.40;;
25079;SDS011;13071;48.868;9.996;2024-03-23T08:15:38;2.55;;;1.30;;
25079;SDS011;13071;48.868;9.996;2024-03-23T08:18:05;1.80;;;1.58;;
25079;SDS011;13071;48.868;9.996;2024-03-23T08:20:30;1.33;;;1.23;;
25079;SDS011;13071;48.868;9.996;2024-03-23T08:22:58;1.45;;;1.33;;
25079;SDS011;13071;48.868;9.996;2024-03-23T08:25:24;2.17;;;1.35;;
25079;SDS011;13071;48.868;9.996;2024-03-23T08:27:51;1.20;;;1.20;;
25079;SDS011;13071;48.868;9.996;2024-03-23T08:30:17;1.52;;;1.40;;
25079;SDS011;13071;48.868;9.996;2024-03-23T08:32:43;1.38;;;1.33;;
25079;SDS011;13071;48.868;9.996;2024-03-23T08:35:09;1.23;;;1.23;;
25079;SDS011;13071;48.868;9.996;2024-03-23T08:37:35;1.05;;;0.90;;
25079;SDS011;13071;48.868;9.996;2024-03-23T08:40:02;1.50;;;1.00;;
25079;SDS011;13071;48.868;9.996;2024-03-23T08:42:29;1.30;;;1.05;;
25079;SDS011;13071;48.868;9.996;2024-03-23T08:44:55;0.90;;;0.90;;
25079;SDS011;13071;48.868;9.996;2024-03-23T08:47:21;1.08;;;1.08;;
25079;SDS011;13071;48.868;9.996;2024-03-23T08:49:46;1.25;;;1.15;;
25079;SDS011;13071;48.868;9.996;2024-03-23T08:52:13;1.17;;;0.98;;
25079;SDS011;13071;48.868;9.996;2024-03-23T08:54:38;0.65;;;0.65;;
25079;SDS011;13071;48.868;9.996;2024-03-23T08:57:06;0.93;;;0.90;;
25079;SDS011;13071;48.868;9.996;2024-03-23T08:59:32;0.47;;;0.47;;
25079;SDS011;13071;48.868;9.996;2024-03-23T09:01:58;0.55;;;0.55;;
25079;SDS011;13071;48.868;9.996;2024-03-23T09:04:24;0.68;;;0.60;;
25079;SDS011;13071;48.868;9.996;2024-03-23T09:06:50;1.33;;;0.52;;
25079;SDS011;13071;48.868;9.996;2024-03-23T09:09:16;0.60;;;0.60;;
25079;SDS011;13071;48.868;9.996;2024-03-23T09:11:45;0.73;;;0.57;;
25079;SDS011;13071;48.868;9.996;2024-03-23T09:14:11;0.70;;;0.70;;
25079;SDS011;13071;48.868;9.996;2024-03-23T09:16:38;0.47;;;0.47;;
25079;SDS011;13071;48.868;9.996;2024-03-23T09:19:03;0.55;;;0.55;;
25079;SDS011;13071;48.868;9.996;2024-03-23T09:21:30;0.50;;;0.50;;
25079;SDS011;13071;48.868;9.996;2024-03-23T09:23:55;1.88;;;0.70;;
25079;SDS011;13071;48.868;9.996;2024-03-23T09:26:21;0.65;;;0.65;;
25079;SDS011;13071;48.868;9.996;2024-03-23T09:28:48;0.88;;;0.88;;
25079;SDS011;13071;48.868;9.996;2024-03-23T09:31:16;1.15;;;1.05;;
25079;SDS011;13071;48.868;9.996;2024-03-23T09:33:41;2.88;;;1.02;;
25079;SDS011;13071;48.868;9.996;2024-03-23T09:36:08;1.42;;;1.00;;
25079;SDS011;13071;48.868;9.996;2024-03-23T09:38:33;1.67;;;0.93;;
25079;SDS011;13071;48.868;9.996;2024-03-23T09:41:00;2.17;;;1.33;;
25079;SDS011;13071;48.868;9.996;2024-03-23T09:43:25;1.67;;;1.13;;
25079;SDS011;13071;48.868;9.996;2024-03-23T09:45:52;1.42;;;1.23;;
25079;SDS011;13071;48.868;9.996;2024-03-23T09:48:19;1.10;;;1.00;;
25079;SDS011;13071;48.868;9.996;2024-03-23T09:50:45;1.17;;;1.08;;
25079;SDS011;13071;48.868;9.996;2024-03-23T09:53:11;1.50;;;1.30;;
25079;SDS011;13071;48.868;9.996;2024-03-23T09:55:38;1.48;;;1.15;;
25079;SDS011;13071;48.868;9.996;2024-03-23T09:58:03;2.22;;;1.10;;
25079;SDS011;13071;48.868;9.996;2024-03-23T10:00:31;1.80;;;1.48;;
25079;SDS011;13071;48.868;9.996;2024-03-23T10:02:56;1.63;;;1.05;;
25079;SDS011;13071;48.868;9.996;2024-03-23T10:05:24;1.88;;;1.35;;
25079;SDS011;13071;48.868;9.996;2024-03-23T10:07:50;1.83;;;1.67;;
25079;SDS011;13071;48.868;9.996;2024-03-23T10:10:16;10.07;;;2.72;;
25079;SDS011;13071;48.868;9.996;2024-03-23T10:12:43;30.73;;;8.85;;
25079;SDS011;13071;48.868;9.996;2024-03-23T10:15:13;5.65;;;3.40;;
25079;SDS011;13071;48.868;9.996;2024-03-23T10:17:40;17.10;;;5.80;;
25079;SDS011;13071;48.868;9.996;2024-03-23T10:20:09;15.68;;;4.53;;
25079;SDS011;13071;48.868;9.996;2024-03-23T10:22:37;5.53;;;2.08;;
25079;SDS011;13071;48.868;9.996;2024-03-23T10:25:07;7.72;;;3.05;;
25079;SDS011;13071;48.868;9.996;2024-03-23T10:27:33;9.25;;;3.88;;
25079;SDS011;13071;48.868;9.996;2024-03-23T10:30:07;8.75;;;4.15;;
25079;SDS011;13071;48.868;9.996;2024-03-23T10:32:33;6.18;;;2.63;;
25079;SDS011;13071;48.868;9.996;2024-03-23T10:35:13;9.85;;;3.00;;
25079;SDS011;13071;48.868;9.996;2024-03-23T10:37:40;10.98;;;3.88;;
25079;SDS011;13071;48.868;9.996;2024-03-23T10:40:07;8.40;;;3.50;;
25079;SDS011;13071;48.868;9.996;2024-03-23T10:42:34;4.47;;;2.35;;
25079;SDS011;13071;48.868;9.996;2024-03-23T10:45:00;3.95;;;2.03;;
25079;SDS011;13071;48.868;9.996;2024-03-23T10:47:26;8.68;;;3.00;;
25079;SDS011;13071;48.868;9.996;2024-03-23T10:49:52;5.40;;;2.58;;
25079;SDS011;13071;48.868;9.996;2024-03-23T10:52:17;3.72;;;2.05;;
25079;SDS011;13071;48.868;9.996;2024-03-23T10:54:45;4.47;;;2.20;;
25079;SDS011;13071;48.868;9.996;2024-03-23T10:57:14;4.72;;;2.33;;
25079;SDS011;13071;48.868;9.996;2024-03-23T10:59:42;6.57;;;2.20;;
25079;SDS011;13071;48.868;9.996;2024-03-23T11:02:08;4.60;;;1.98;;
25079;SDS011;13071;48.868;9.996;2024-03-23T11:04:44;11.45;;;2.63;;
25079;SDS011;13071;48.868;9.996;2024-03-23T11:09:52;3.63;;;1.95;;
25079;SDS011;13071;48.868;9.996;2024-03-23T11:12:27;6.10;;;1.77;;
25079;SDS011;13071;48.868;9.996;2024-03-23T11:14:57;4.97;;;1.85;;
25079;SDS011;13071;48.868;9.996;2024-03-23T11:17:24;2.90;;;2.15;;
25079;SDS011;13071;48.868;9.996;2024-03-23T11:19:54;2.45;;;1.80;;
25079;SDS011;13071;48.868;9.996;2024-03-23T11:22:40;5.55;;;2.17;;
25079;SDS011;13071;48.868;9.996;2024-03-23T11:25:20;4.82;;;2.38;;
25079;SDS011;13071;48.868;9.996;2024-03-23T11:27:46;2.08;;;1.60;;
25079;SDS011;13071;48.868;9.996;2024-03-23T11:30:13;4.88;;;2.80;;
25079;SDS011;13071;48.868;9.996;2024-03-23T11:32:39;5.55;;;2.00;;
25079;SDS011;13071;48.868;9.996;2024-03-23T11:35:06;6.07;;;2.42;;
25079;SDS011;13071;48.868;9.996;2024-03-23T11:37:31;6.68;;;2.15;;
25079;SDS011;13071;48.868;9.996;2024-03-23T11:39:58;6.15;;;2.42;;
25079;SDS011;13071;48.868;9.996;2024-03-23T11:42:24;3.25;;;1.77;;
25079;SDS011;13071;48.868;9.996;2024-03-23T11:44:51;5.20;;;2.05;;
25079;SDS011;13071;48.868;9.996;2024-03-23T11:47:16;3.83;;;1.80;;
25079;SDS011;13071;48.868;9.996;2024-03-23T11:49:42;5.82;;;2.20;;
25079;SDS011;13071;48.868;9.996;2024-03-23T11:52:08;4.93;;;1.80;;
25079;SDS011;13071;48.868;9.996;2024-03-23T11:54:34;3.63;;;2.00;;
25079;SDS011;13071;48.868;9.996;2024-03-23T11:57:00;4.40;;;1.88;;
25079;SDS011;13071;48.868;9.996;2024-03-23T11:59:32;4.03;;;1.40;;
25079;SDS011;13071;48.868;9.996;2024-03-23T12:01:58;2.65;;;1.38;;
25079;SDS011;13071;48.868;9.996;2024-03-23T12:04:25;3.10;;;1.75;;
25079;SDS011;13071;48.868;9.996;2024-03-23T12:06:50;5.63;;;1.80;;
25079;SDS011;13071;48.868;9.996;2024-03-23T12:09:17;8.32;;;1.95;;
25079;SDS011;13071;48.868;9.996;2024-03-23T12:11:42;4.70;;;1.85;;
25079;SDS011;13071;48.868;9.996;2024-03-23T12:14:08;7.88;;;2.20;;
25079;SDS011;13071;48.868;9.996;2024-03-23T12:16:35;6.43;;;2.30;;
25079;SDS011;13071;48.868;9.996;2024-03-23T12:19:04;4.03;;;2.30;;
25079;SDS011;13071;48.868;9.996;2024-03-23T12:21:30;3.30;;;1.92;;
25079;SDS011;13071;48.868;9.996;2024-03-23T12:23:57;7.55;;;2.90;;
25079;SDS011;13071;48.868;9.996;2024-03-23T12:26:23;7.00;;;3.00;;
25079;SDS011;13071;48.868;9.996;2024-03-23T12:28:50;5.75;;;2.28;;
25079;SDS011;13071;48.868;9.996;2024-03-23T12:31:15;11.48;;;3.03;;
25079;SDS011;13071;48.868;9.996;2024-03-23T12:33:43;7.38;;;2.95;;
25079;SDS011;13071;48.868;9.996;2024-03-23T12:36:09;8.13;;;3.15;;
25079;SDS011;13071;48.868;9.996;2024-03-23T12:38:36;9.07;;;3.45;;
25079;SDS011;13071;48.868;9.996;2024-03-23T12:41:01;5.10;;;2.30;;
25079;SDS011;13071;48.868;9.996;2024-03-23T12:43:30;9.68;;;2.70;;
25079;SDS011;13071;48.868;9.996;2024-03-23T12:45:55;2.58;;;1.98;;
25079;SDS011;13071;48.868;9.996;2024-03-23T12:48:22;7.53;;;2.25;;
25079;SDS011;13071;48.868;9.996;2024-03-23T12:50:48;5.40;;;2.60;;
25079;SDS011;13071;48.868;9.996;2024-03-23T12:53:15;4.90;;;2.60;;
25079;SDS011;13071;48.868;9.996;2024-03-23T12:55:40;6.13;;;2.88;;
25079;SDS011;13071;48.868;9.996;2024-03-23T12:58:06;7.18;;;3.00;;
25079;SDS011;13071;48.868;9.996;2024-03-23T13:00:32;5.10;;;2.40;;
25079;SDS011;13071;48.868;9.996;2024-03-23T13:02:58;5.00;;;2.20;;
25079;SDS011;13071;48.868;9.996;2024-03-23T13:05:24;6.97;;;2.85;;
25079;SDS011;13071;48.868;9.996;2024-03-23T13:07:52;3.92;;;2.47;;
25079;SDS011;13071;48.868;9.996;2024-03-23T13:10:17;9.15;;;2.90;;
25079;SDS011;13071;48.868;9.996;2024-03-23T13:12:43;6.80;;;2.47;;
25079;SDS011;13071;48.868;9.996;2024-03-23T13:15:09;5.45;;;2.45;;
25079;SDS011;13071;48.868;9.996;2024-03-23T13:17:35;6.28;;;2.20;;
25079;SDS011;13071;48.868;9.996;2024-03-23T13:20:00;9.13;;;2.47;;
25079;SDS011;13071;48.868;9.996;2024-03-23T13:22:28;5.65;;;1.83;;
25079;SDS011;13071;48.868;9.996;2024-03-23T13:24:55;4.38;;;2.08;;
25079;SDS011;13071;48.868;9.996;2024-03-23T13:27:21;4.72;;;2.10;;
25079;SDS011;13071;48.868;9.996;2024-03-23T13:29:47;5.07;;;2.00;;
25079;SDS011;13071;48.868;9.996;2024-03-23T13:32:13;4.15;;;2.00;;
25079;SDS011;13071;48.868;9.996;2024-03-23T13:34:38;5.80;;;2.63;;
25079;SDS011;13071;48.868;9.996;2024-03-23T13:37:05;3.38;;;1.80;;
25079;SDS011;13071;48.868;9.996;2024-03-23T13:39:32;5.78;;;2.17;;
25079;SDS011;13071;48.868;9.996;2024-03-23T13:42:00;3.40;;;1.83;;
25079;SDS011;13071;48.868;9.996;2024-03-23T13:44:25;4.63;;;1.92;;
25079;SDS011;13071;48.868;9.996;2024-03-23T13:46:51;3.00;;;1.73;;
25079;SDS011;13071;48.868;9.996;2024-03-23T13:49:24;3.13;;;1.70;;
25079;SDS011;13071;48.868;9.996;2024-03-23T13:51:51;2.90;;;1.75;;
25079;SDS011;13071;48.868;9.996;2024-03-23T13:54:16;10.07;;;2.03;;
25079;SDS011;13071;48.868;9.996;2024-03-23T13:56:43;2.58;;;1.80;;
25079;SDS011;13071;48.868;9.996;2024-03-23T13:59:10;3.05;;;1.80;;
25079;SDS011;13071;48.868;9.996;2024-03-23T14:01:37;4.10;;;1.90;;
25079;SDS011;13071;48.868;9.996;2024-03-23T14:04:02;1.70;;;1.60;;
25079;SDS011;13071;48.868;9.996;2024-03-23T14:06:29;5.90;;;1.92;;
25079;SDS011;13071;48.868;9.996;2024-03-23T14:08:54;5.47;;;2.17;;
25079;SDS011;13071;48.868;9.996;2024-03-23T14:11:20;6.15;;;2.13;;
25079;SDS011;13071;48.868;9.996;2024-03-23T14:13:46;5.03;;;1.60;;
25079;SDS011;13071;48.868;9.996;2024-03-23T14:16:14;7.93;;;1.83;;
25079;SDS011;13071;48.868;9.996;2024-03-23T14:18:39;2.08;;;1.42;;
25079;SDS011;13071;48.868;9.996;2024-03-23T14:21:05;3.00;;;1.50;;
25079;SDS011;13071;48.868;9.996;2024-03-23T14:23:32;1.40;;;1.30;;
25079;SDS011;13071;48.868;9.996;2024-03-23T14:25:59;3.15;;;1.70;;
25079;SDS011;13071;48.868;9.996;2024-03-23T14:28:24;4.45;;;1.13;;
25079;SDS011;13071;48.868;9.996;2024-03-23T14:30:51;2.90;;;1.40;;
25079;SDS011;13071;48.868;9.996;2024-03-23T14:33:18;2.80;;;1.63;;
25079;SDS011;13071;48.868;9.996;2024-03-23T14:35:51;9.90;;;1.50;;
25079;SDS011;13071;48.868;9.996;2024-03-23T14:38:17;6.22;;;1.63;;
25079;SDS011;13071;48.868;9.996;2024-03-23T14:40:43;2.97;;;1.58;;
25079;SDS011;13071;48.868;9.996;2024-03-23T14:43:09;2.90;;;1.80;;
25079;SDS011;13071;48.868;9.996;2024-03-23T14:45:35;6.90;;;1.92;;
25079;SDS011;13071;48.868;9.996;2024-03-23T14:48:00;6.75;;;2.70;;
25079;SDS011;13071;48.868;9.996;2024-03-23T14:53:31;5.45;;;2.30;;
25079;SDS011;13071;48.868;9.996;2024-03-23T14:55:58;0.88;;;0.80;;
25079;SDS011;13071;48.868;9.996;2024-03-23T14:58:25;1.25;;;0.95;;
25079;SDS011;13071;48.868;9.996;2024-03-23T15:00:51;2.28;;;0.98;;
25079;SDS011;13071;48.868;9.996;2024-03-23T15:03:17;0.63;;;0.63;;
25079;SDS011;13071;48.868;9.996;2024-03-23T15:05:51;1.45;;;1.10;;
25079;SDS011;13071;48.868;9.996;2024-03-23T15:08:16;2.13;;;1.00;;
25079;SDS011;13071;48.868;9.996;2024-03-23T15:10:44;3.47;;;1.00;;
25079;SDS011;13071;48.868;9.996;2024-03-23T15:13:09;3.03;;;1.23;;
25079;SDS011;13071;48.868;9.996;2024-03-23T15:15:37;2.05;;;0.90;;
25079;SDS011;13071;48.868;9.996;2024-03-23T15:18:04;2.17;;;0.90;;
25079;SDS011;13071;48.868;9.996;2024-03-23T15:20:30;1.17;;;0.90;;
25079;SDS011;13071;48.868;9.996;2024-03-23T15:22:56;1.35;;;0.77;;
25079;SDS011;13071;48.868;9.996;2024-03-23T15:25:22;5.68;;;0.90;;
25079;SDS011;13071;48.868;9.996;2024-03-23T15:27:50;2.53;;;0.88;;
25079;SDS011;13071;48.868;9.996;2024-03-23T15:30:16;1.48;;;0.93;;
25079;SDS011;13071;48.868;9.996;2024-03-23T15:32:41;2.00;;;0.70;;
25079;SDS011;13071;48.868;9.996;2024-03-23T15:35:08;2.55;;;1.02;;
25079;SDS011;13071;48.868;9.996;2024-03-23T15:37:33;1.73;;;0.60;;
25079;SDS011;13071;48.868;9.996;2024-03-23T15:40:00;1.35;;;0.55;;